createdAt,value
2023-03-31T00:00:47.289Z,99202.66
2023-03-31T00:03:48.821Z,99203.13
2023-03-31T00:06:54.231Z,99190.94
2023-03-31T00:10:07.093Z,99191.41
2023-03-31T00:13:17.752Z,99179.69
2023-03-31T00:16:19.348Z,99172.41
2023-03-31T00:19:21.187Z,99163.19
2023-03-31T00:22:22.703Z,99159.81
2023-03-31T00:25:24.112Z,99164.75
2023-03-31T00:28:25.489Z,99169.53
2023-03-31T00:31:27.964Z,99172.81
2023-03-31T00:34:30.060Z,99160.69
2023-03-31T00:37:35.315Z,99167.91
2023-03-31T00:40:36.809Z,99189.44
2023-03-31T00:43:38.799Z,99190.81
2023-03-31T00:46:52.478Z,99219.09
2023-03-31T00:49:59.712Z,99249.69
2023-03-31T00:53:08.626Z,99268.03
2023-03-31T00:56:14.842Z,99267.72
2023-03-31T00:59:17.682Z,99260.94
2023-03-31T01:02:21.978Z,99255.69
2023-03-31T01:05:27.762Z,99245.38
2023-03-31T01:08:30.480Z,99217.09
2023-03-31T01:11:32.019Z,99204.81
2023-03-31T01:14:34.069Z,99201.72
2023-03-31T01:17:36.908Z,99192.25
2023-03-31T01:21:18.625Z,99195.81
2023-03-31T01:24:47.302Z,99183.41
2023-03-31T01:28:02.025Z,99173.19
2023-03-31T01:31:41.839Z,99157.84
2023-03-31T01:35:20.263Z,99144.09
2023-03-31T01:38:33.717Z,99128.31
2023-03-31T01:41:38.156Z,99104.84
2023-03-31T01:45:06.432Z,99102.28
2023-03-31T01:48:14.750Z,99078.28
2023-03-31T01:51:22.193Z,99066.81
2023-03-31T01:54:39.296Z,99060.88
2023-03-31T01:57:52.470Z,99052.97
2023-03-31T02:01:03.617Z,99046.66
2023-03-31T02:04:17.293Z,99037.22
2023-03-31T02:07:24.730Z,99017.28
2023-03-31T02:10:30.757Z,99010.69
2023-03-31T02:13:37.150Z,99000.50
2023-03-31T02:16:47.341Z,98976.13
2023-03-31T02:19:52.691Z,98958.31
2023-03-31T02:22:56.628Z,98938.91
2023-03-31T02:26:07.055Z,98938.28
2023-03-31T02:29:09.020Z,98930.09
2023-03-31T02:32:21.904Z,98917.47
2023-03-31T02:35:25.158Z,98900.63
2023-03-31T02:38:27.209Z,98894.19
2023-03-31T02:41:28.704Z,98872.13
2023-03-31T02:44:31.482Z,98870.13
2023-03-31T02:47:34.322Z,98850.41
2023-03-31T02:50:54.696Z,98841.81
2023-03-31T02:54:39.177Z,98833.88
2023-03-31T02:57:51.827Z,98834.88
2023-03-31T03:01:22.285Z,98816.00
2023-03-31T03:04:41.878Z,98789.25
2023-03-31T03:08:03.615Z,98773.50
2023-03-31T03:11:18.642Z,98757.22
2023-03-31T03:14:35.896Z,98724.13
2023-03-31T03:17:49.894Z,98701.38
2023-03-31T03:20:51.421Z,98689.19
2023-03-31T03:23:53.015Z,98675.53
2023-03-31T03:26:55.197Z,98666.13
2023-03-31T03:29:56.621Z,98634.28
2023-03-31T03:32:58.921Z,98639.00
2023-03-31T03:36:00.621Z,98639.66
2023-03-31T03:39:02.105Z,98639.00
2023-03-31T03:42:03.820Z,98628.66
2023-03-31T03:45:05.880Z,98624.81
2023-03-31T03:48:07.350Z,98624.81
2023-03-31T03:51:08.822Z,98638.69
2023-03-31T03:54:10.370Z,98642.91
2023-03-31T03:57:11.839Z,98652.69
2023-03-31T04:00:13.592Z,98656.66
2023-03-31T04:03:16.873Z,98669.16
2023-03-31T04:06:18.367Z,98691.38
2023-03-31T04:09:19.817Z,98688.78
2023-03-31T04:12:21.288Z,98680.06
2023-03-31T04:15:22.843Z,98656.94
2023-03-31T04:18:24.289Z,98616.66
2023-03-31T04:21:25.705Z,98613.56
2023-03-31T04:24:32.621Z,98636.72
2023-03-31T04:27:35.052Z,98607.16
2023-03-31T04:30:39.695Z,98623.19
2023-03-31T04:33:41.687Z,98634.66
2023-03-31T04:36:48.562Z,98603.81
2023-03-31T04:39:50.710Z,98580.88
2023-03-31T04:42:52.300Z,98607.75
2023-03-31T04:45:53.767Z,98602.84
2023-03-31T04:48:55.196Z,98628.56
2023-03-31T04:51:56.603Z,98628.38
2023-03-31T04:54:58.004Z,98641.63
2023-03-31T04:57:59.676Z,98631.63
2023-03-31T05:01:01.104Z,98622.97
2023-03-31T05:04:06.261Z,98618.63
2023-03-31T05:07:07.726Z,98615.50
2023-03-31T05:10:09.957Z,98611.84
2023-03-31T05:13:11.945Z,98606.72
2023-03-31T05:16:14.597Z,98611.53
2023-03-31T05:19:18.158Z,98598.38
2023-03-31T05:22:20.644Z,98604.16
2023-03-31T05:25:22.519Z,98603.13
2023-03-31T05:28:23.960Z,98594.00
2023-03-31T05:31:26.193Z,98588.78
2023-03-31T05:34:27.592Z,98585.19
2023-03-31T05:37:29.478Z,98591.53
2023-03-31T05:40:30.907Z,98593.53
2023-03-31T05:43:32.519Z,98597.69
2023-03-31T05:46:33.979Z,98602.56
2023-03-31T05:49:35.472Z,98608.59
2023-03-31T05:52:36.904Z,98607.63
2023-03-31T05:55:39.008Z,98620.03
2023-03-31T05:58:40.521Z,98635.94
2023-03-31T06:01:42.265Z,98654.81
2023-03-31T06:04:44.021Z,98686.00
2023-03-31T06:07:45.712Z,98705.84
2023-03-31T06:10:47.152Z,98707.28
2023-03-31T06:13:49.148Z,98706.56
2023-03-31T06:16:50.616Z,98723.72
2023-03-31T06:19:52.049Z,98715.34
2023-03-31T06:22:53.542Z,98682.63
2023-03-31T06:25:59.005Z,98691.59
2023-03-31T06:29:00.609Z,98675.75
2023-03-31T06:32:04.950Z,98640.81
2023-03-31T06:35:06.895Z,98622.47
2023-03-31T06:38:08.852Z,98607.66
2023-03-31T06:41:13.315Z,98631.53
2023-03-31T06:44:16.590Z,98640.16
2023-03-31T06:47:18.005Z,98643.63
2023-03-31T06:50:19.738Z,98639.19
2023-03-31T06:53:22.172Z,98637.19
2023-03-31T06:56:23.811Z,98646.53
2023-03-31T06:59:25.217Z,98644.34
2023-03-31T07:02:26.730Z,98656.44
2023-03-31T07:05:28.898Z,98653.38
2023-03-31T07:08:31.013Z,98656.63
2023-03-31T07:11:32.685Z,98660.34
2023-03-31T07:14:34.096Z,98650.69
2023-03-31T07:17:37.449Z,98645.25
2023-03-31T07:20:38.921Z,98646.28
2023-03-31T07:23:40.626Z,98638.81
2023-03-31T07:26:42.188Z,98645.31
2023-03-31T07:29:43.730Z,98639.44
2023-03-31T07:32:50.083Z,98637.44
2023-03-31T07:36:00.298Z,98639.50
2023-03-31T07:39:09.717Z,98638.41
2023-03-31T07:42:11.172Z,98626.69
2023-03-31T07:45:13.405Z,98637.63
2023-03-31T07:48:15.055Z,98630.72
2023-03-31T07:51:19.203Z,98621.69
2023-03-31T07:54:20.858Z,98626.81
2023-03-31T07:57:22.528Z,98631.13
2023-03-31T08:00:24.610Z,98628.84
2023-03-31T08:03:26.445Z,98635.53
2023-03-31T08:06:29.890Z,98642.38
2023-03-31T08:09:31.374Z,98650.03
2023-03-31T08:12:40.754Z,98647.28
2023-03-31T08:15:42.173Z,98651.28
2023-03-31T08:18:43.716Z,98642.00
2023-03-31T08:21:45.373Z,98646.88
2023-03-31T08:24:47.316Z,98646.88
2023-03-31T08:27:51.166Z,98657.63
2023-03-31T08:30:52.659Z,98661.91
2023-03-31T08:33:54.162Z,98656.38
2023-03-31T08:36:55.595Z,98660.34
2023-03-31T08:39:57.159Z,98642.56
2023-03-31T08:43:06.450Z,98644.00
2023-03-31T08:46:12.297Z,98633.22
2023-03-31T08:49:17.696Z,98611.56
2023-03-31T08:52:24.686Z,98615.59
2023-03-31T08:55:34.433Z,98607.88
2023-03-31T08:58:47.771Z,98592.09
2023-03-31T09:02:06.111Z,98595.13
2023-03-31T09:05:45.945Z,98601.00
2023-03-31T09:09:01.792Z,98587.22
2023-03-31T09:12:11.205Z,98579.47
2023-03-31T09:15:27.887Z,98566.06
2023-03-31T09:18:35.374Z,98554.03
2023-03-31T09:21:43.712Z,98558.81
2023-03-31T09:25:10.275Z,98547.94
2023-03-31T09:28:30.906Z,98556.03
2023-03-31T09:31:32.833Z,98557.69
2023-03-31T09:34:34.637Z,98543.06
2023-03-31T09:37:36.248Z,98542.47
2023-03-31T09:40:38.057Z,98537.34
2023-03-31T09:43:41.403Z,98520.47
2023-03-31T09:46:43.179Z,98502.00
2023-03-31T09:49:53.574Z,98509.28
2023-03-31T09:52:59.709Z,98514.06
2023-03-31T09:56:03.790Z,98507.38
2023-03-31T09:59:05.408Z,98518.34
2023-03-31T10:02:25.444Z,98511.50
2023-03-31T10:05:33.930Z,98502.63
2023-03-31T10:08:39.624Z,98484.59
2023-03-31T10:11:52.813Z,98505.84
2023-03-31T10:15:11.884Z,98502.16
2023-03-31T10:18:18.877Z,98506.53
2023-03-31T10:21:26.061Z,98540.47
2023-03-31T10:24:38.043Z,98646.88
2023-03-31T10:27:41.907Z,98679.31
2023-03-31T10:30:48.520Z,98669.50
2023-03-31T10:33:51.986Z,98647.63
2023-03-31T10:36:53.600Z,98704.44
2023-03-31T10:40:06.578Z,98711.59
2023-03-31T10:43:17.152Z,98724.66
2023-03-31T10:46:19.326Z,98728.19
2023-03-31T10:49:20.832Z,98709.44
2023-03-31T10:52:24.876Z,98707.00
2023-03-31T10:55:31.345Z,98643.09
2023-03-31T10:59:04.500Z,98617.47
2023-03-31T11:02:46.687Z,98679.66
2023-03-31T11:05:52.405Z,98654.16
2023-03-31T11:09:22.493Z,98636.75
2023-03-31T11:12:26.848Z,98606.56
2023-03-31T11:15:59.885Z,98606.00
2023-03-31T11:19:07.299Z,98602.34
2023-03-31T11:22:28.966Z,98582.66
2023-03-31T11:25:39.882Z,98596.63
2023-03-31T11:28:44.275Z,98599.13
2023-03-31T11:32:20.436Z,98599.75
2023-03-31T11:35:56.741Z,98569.59
2023-03-31T11:39:17.024Z,98532.97
2023-03-31T11:42:25.971Z,98523.97
2023-03-31T11:45:36.222Z,98516.53
2023-03-31T11:49:01.797Z,98517.63
2023-03-31T11:52:09.873Z,98512.50
2023-03-31T11:55:11.209Z,98509.09
2023-03-31T11:58:21.906Z,98515.13
2023-03-31T12:01:57.814Z,98520.44
2023-03-31T12:04:59.773Z,98515.78
2023-03-31T12:08:12.209Z,98505.31
2023-03-31T12:11:16.365Z,98512.16
2023-03-31T12:14:17.697Z,98525.50
2023-03-31T12:17:25.658Z,98497.72
2023-03-31T12:20:57.719Z,98481.94
2023-03-31T12:23:59.186Z,98486.06
2023-03-31T12:27:14.754Z,98483.28
2023-03-31T12:30:31.382Z,98479.09
2023-03-31T12:33:41.166Z,98502.13
2023-03-31T12:36:55.705Z,98531.44
2023-03-31T12:40:24.045Z,98547.47
2023-03-31T12:43:52.513Z,98612.19
2023-03-31T12:47:18.841Z,98606.19
2023-03-31T12:50:32.340Z,98560.78
2023-03-31T12:53:52.458Z,98571.34
2023-03-31T12:57:00.023Z,98561.06
2023-03-31T13:00:13.746Z,98569.97
2023-03-31T13:03:37.157Z,98512.72
2023-03-31T13:06:38.559Z,98482.38
2023-03-31T13:09:48.501Z,98464.66
2023-03-31T13:13:14.373Z,98500.50
2023-03-31T13:16:21.002Z,98515.53
2023-03-31T13:19:34.743Z,98526.84
2023-03-31T13:22:40.352Z,98520.16
2023-03-31T13:25:50.618Z,98503.94
2023-03-31T13:29:19.328Z,98473.59
2023-03-31T13:32:23.276Z,98485.97
2023-03-31T13:35:30.936Z,98490.28
2023-03-31T13:39:00.358Z,98503.59
2023-03-31T13:42:16.702Z,98505.91
2023-03-31T13:45:45.319Z,98483.13
2023-03-31T13:49:17.539Z,98479.50
2023-03-31T13:52:33.413Z,98487.22
2023-03-31T13:55:56.440Z,98470.63
2023-03-31T13:59:06.039Z,98472.16
2023-03-31T14:02:26.478Z,98465.00
2023-03-31T14:05:33.908Z,98467.63
2023-03-31T14:08:57.366Z,98466.03
2023-03-31T14:12:00.302Z,98461.00
2023-03-31T14:15:03.532Z,98459.56
2023-03-31T14:18:06.883Z,98452.66
2023-03-31T14:21:17.901Z,98460.81
2023-03-31T14:24:26.289Z,98455.94
2023-03-31T14:28:02.429Z,98450.63
2023-03-31T14:31:26.878Z,98439.44
2023-03-31T14:34:45.535Z,98443.91
2023-03-31T14:37:48.907Z,98440.00
2023-03-31T14:40:54.502Z,98443.84
2023-03-31T14:44:00.472Z,98431.06
2023-03-31T14:47:02.004Z,98419.94
2023-03-31T14:50:12.950Z,98408.16
2023-03-31T14:53:22.957Z,98409.81
2023-03-31T14:56:37.379Z,98410.16
2023-03-31T14:59:39.006Z,98413.88
2023-03-31T15:02:43.402Z,98412.13
2023-03-31T15:05:49.849Z,98412.28
2023-03-31T15:08:56.341Z,98405.66
2023-03-31T15:12:04.149Z,98400.56
2023-03-31T15:15:06.693Z,98397.44
2023-03-31T15:18:12.583Z,98395.34
2023-03-31T15:21:25.774Z,98393.75
2023-03-31T15:24:29.040Z,98423.16
2023-03-31T15:27:39.854Z,98535.50
2023-03-31T15:30:42.303Z,98554.53
2023-03-31T15:33:44.077Z,98560.34
2023-03-31T15:36:45.839Z,98531.66
2023-03-31T15:39:48.768Z,98483.91
2023-03-31T15:43:06.475Z,98410.19
2023-03-31T15:46:45.523Z,98426.19
2023-03-31T15:49:55.326Z,98433.25
2023-03-31T15:52:58.112Z,98447.88
2023-03-31T15:56:00.287Z,98443.19
2023-03-31T15:59:04.359Z,98453.31
2023-03-31T16:02:11.852Z,98460.66
2023-03-31T16:05:37.409Z,98459.31
2023-03-31T16:09:08.935Z,98442.88
2023-03-31T16:12:43.031Z,98432.84
2023-03-31T16:15:49.546Z,98419.75
2023-03-31T16:18:54.727Z,98411.13
2023-03-31T16:22:01.865Z,98393.00
2023-03-31T16:25:09.136Z,98388.59
2023-03-31T16:28:16.661Z,98393.25
2023-03-31T16:31:36.534Z,98403.69
2023-03-31T16:35:07.752Z,98419.97
2023-03-31T16:38:11.583Z,98417.41
2023-03-31T16:41:15.742Z,98423.41
2023-03-31T16:44:17.181Z,98427.00
2023-03-31T16:47:31.581Z,98437.50
2023-03-31T16:50:41.154Z,98432.44
2023-03-31T16:53:42.849Z,98425.75
2023-03-31T16:56:44.287Z,98436.22
2023-03-31T16:59:45.786Z,98436.94
2023-03-31T17:02:47.551Z,98434.63
2023-03-31T17:05:55.183Z,98428.56
2023-03-31T17:08:58.642Z,98416.44
2023-03-31T17:12:00.392Z,98421.41
2023-03-31T17:15:01.906Z,98422.84
2023-03-31T17:18:04.547Z,98421.19
2023-03-31T17:21:14.041Z,98432.50
2023-03-31T17:24:15.478Z,98446.13
2023-03-31T17:27:16.939Z,98441.03
2023-03-31T17:30:18.567Z,98451.41
2023-03-31T17:33:20.424Z,98443.72
2023-03-31T17:36:22.376Z,98442.34
2023-03-31T17:39:23.824Z,98433.88
2023-03-31T17:42:25.672Z,98441.84
2023-03-31T17:45:27.217Z,98464.31
2023-03-31T17:48:28.691Z,98463.50
2023-03-31T17:51:34.372Z,98470.19
2023-03-31T17:54:35.943Z,98474.50
2023-03-31T17:57:38.933Z,98474.78
2023-03-31T18:00:40.572Z,98479.84
2023-03-31T18:03:42.384Z,98477.66
2023-03-31T18:06:53.113Z,98475.81
2023-03-31T18:09:54.786Z,98475.31
2023-03-31T18:12:59.791Z,98467.16
2023-03-31T18:16:05.260Z,98474.31
2023-03-31T18:19:07.382Z,98468.31
2023-03-31T18:22:09.948Z,98467.63
2023-03-31T18:25:11.701Z,98471.44
2023-03-31T18:28:15.087Z,98459.16
2023-03-31T18:31:17.190Z,98467.00
2023-03-31T18:34:19.537Z,98467.72
2023-03-31T18:37:20.883Z,98461.75
2023-03-31T18:40:22.471Z,98468.09
2023-03-31T18:43:24.552Z,98463.13
2023-03-31T18:46:25.953Z,98458.63
2023-03-31T18:49:27.725Z,98453.91
2023-03-31T18:52:29.161Z,98457.44
2023-03-31T18:55:30.820Z,98462.75
2023-03-31T18:58:32.404Z,98463.50
2023-03-31T19:01:37.216Z,98469.44
2023-03-31T19:04:38.852Z,98464.84
2023-03-31T19:07:40.978Z,98472.69
2023-03-31T19:10:42.666Z,98475.41
2023-03-31T19:13:44.353Z,98503.03
2023-03-31T19:16:45.860Z,98513.34
2023-03-31T19:19:47.620Z,98537.69
2023-03-31T19:22:50.796Z,98530.72
2023-03-31T19:25:57.487Z,98534.38
2023-03-31T19:28:58.930Z,98562.53
2023-03-31T19:32:01.427Z,98560.06
2023-03-31T19:35:02.920Z,98545.69
2023-03-31T19:38:05.118Z,98543.72
2023-03-31T19:41:06.628Z,98547.78
2023-03-31T19:44:08.020Z,98546.88
2023-03-31T19:47:09.443Z,98552.31
2023-03-31T19:50:11.198Z,98546.13
2023-03-31T19:53:13.679Z,98548.09
2023-03-31T19:56:17.402Z,98548.84
2023-03-31T19:59:19.044Z,98558.34
2023-03-31T20:02:20.810Z,98556.84
2023-03-31T20:05:22.357Z,98561.03
2023-03-31T20:08:23.921Z,98562.38
2023-03-31T20:11:26.888Z,98549.16
2023-03-31T20:14:29.479Z,98549.75
2023-03-31T20:17:30.941Z,98555.81
2023-03-31T20:20:32.927Z,98559.75
2023-03-31T20:23:34.925Z,98554.75
2023-03-31T20:26:36.698Z,98548.94
2023-03-31T20:29:38.328Z,98557.72
2023-03-31T20:32:39.884Z,98553.66
2023-03-31T20:35:41.829Z,98558.72
2023-03-31T20:38:46.204Z,98562.00
2023-03-31T20:41:49.509Z,98565.44
2023-03-31T20:44:51.253Z,98569.88
2023-03-31T20:47:52.741Z,98580.44
2023-03-31T20:50:55.481Z,98585.34
2023-03-31T20:53:59.048Z,98592.81
2023-03-31T20:57:05.432Z,98592.22
2023-03-31T21:00:07.572Z,98586.09
2023-03-31T21:03:10.354Z,98580.31
2023-03-31T21:06:14.173Z,98579.91
2023-03-31T21:09:16.420Z,98583.63
2023-03-31T21:12:17.769Z,98585.53
2023-03-31T21:15:19.246Z,98585.53
2023-03-31T21:18:20.853Z,98585.69
2023-03-31T21:21:24.321Z,98584.22
2023-03-31T21:24:26.413Z,98581.44
2023-03-31T21:27:27.936Z,98592.50
2023-03-31T21:30:29.389Z,98600.06
2023-03-31T21:33:31.723Z,98610.81
2023-03-31T21:36:33.412Z,98635.66
2023-03-31T21:39:35.170Z,98632.72
2023-03-31T21:42:37.422Z,98627.81
2023-03-31T21:45:39.419Z,98623.84
2023-03-31T21:48:40.808Z,98605.59
2023-03-31T21:51:42.276Z,98609.69
2023-03-31T21:54:46.679Z,98603.88
2023-03-31T21:57:48.201Z,98606.16
2023-03-31T22:00:49.588Z,98620.84
2023-03-31T22:03:51.845Z,98618.13
2023-03-31T22:06:53.326Z,98613.91
2023-03-31T22:09:54.786Z,98623.50
2023-03-31T22:12:56.311Z,98626.59
2023-03-31T22:16:00.005Z,98614.28
2023-03-31T22:19:01.521Z,98603.69
2023-03-31T22:22:14.095Z,98609.25
2023-03-31T22:25:15.686Z,98616.66
2023-03-31T22:28:17.649Z,98603.53
2023-03-31T22:31:19.304Z,98600.38
2023-03-31T22:34:20.900Z,98605.88
2023-03-31T22:37:22.405Z,98607.22
2023-03-31T22:40:23.931Z,98619.84
2023-03-31T22:43:25.436Z,98608.84
2023-03-31T22:46:26.917Z,98605.94
2023-03-31T22:49:28.347Z,98619.88
2023-03-31T22:52:29.965Z,98616.34
2023-03-31T22:55:31.650Z,98612.22
2023-03-31T22:58:33.624Z,98605.31
2023-03-31T23:01:35.181Z,98618.66
2023-03-31T23:04:36.622Z,98615.75
2023-03-31T23:07:38.553Z,98604.84
2023-03-31T23:10:40.189Z,98604.97
2023-03-31T23:13:41.739Z,98606.53
2023-03-31T23:16:43.369Z,98596.06
2023-03-31T23:19:47.596Z,98600.63
2023-03-31T23:22:50.088Z,98603.31
2023-03-31T23:25:51.488Z,98602.56
2023-03-31T23:28:54.429Z,98612.38
2023-03-31T23:31:55.960Z,98609.25
2023-03-31T23:34:57.485Z,98601.91
2023-03-31T23:37:58.949Z,98602.03
2023-03-31T23:41:01.628Z,98616.72
2023-03-31T23:44:03.120Z,98618.63
2023-03-31T23:47:05.776Z,98622.00
2023-03-31T23:50:09.107Z,98621.59
2023-03-31T23:53:11.387Z,98616.97
2023-03-31T23:56:13.099Z,98615.13
2023-03-31T23:59:15.389Z,98608.78
